Time;durP1;ratioP1;P1;durP2;ratioP2;P2;SDS_P1;SDS_P2;PMS_P1;PMS_P2;Temp;Humidity;BMP_temperature;BMP_pressure;BME280_temperature;BME280_humidity;BME280_pressure;Samples;Min_cycle;Max_cycle;Signal;HPM_P1;HPM_P2
2022/10/25 00:00:08;;;;;;;11.37;4.43;;;;;;;;;;5030054;28;20025;-66
2022/10/25 00:02:35;;;;;;;16.02;5.13;;;;;;;;;;5016522;28;20243;-66
2022/10/25 00:05:00;;;;;;;17.23;5.10;;;;;;;;;;5023145;28;20045;-67
2022/10/25 00:07:26;;;;;;;17.98;5.07;;;;;;;;;;5028509;28;20064;-66
2022/10/25 00:09:51;;;;;;;15.95;4.72;;;;;;;;;;5030013;28;20030;-67
2022/10/25 00:12:16;;;;;;;10.30;4.18;;;;;;;;;;5028005;28;20053;-67
2022/10/25 00:14:41;;;;;;;17.80;5.60;;;;;;;;;;5029660;28;20120;-68
2022/10/25 00:17:07;;;;;;;15.25;5.10;;;;;;;;;;5016449;28;20029;-67
2022/10/25 00:19:32;;;;;;;18.77;4.95;;;;;;;;;;5030206;28;20014;-68
2022/10/25 00:21:57;;;;;;;13.20;5.35;;;;;;;;;;5029636;28;20030;-66
2022/10/25 00:24:22;;;;;;;22.00;8.80;;;;;;;;;;5029532;28;20024;-67
2022/10/25 00:26:48;;;;;;;24.13;4.85;;;;;;;;;;5029405;28;20360;-66
2022/10/25 00:29:13;;;;;;;18.33;5.40;;;;;;;;;;5018666;28;20018;-67
2022/10/25 00:31:38;;;;;;;21.42;4.85;;;;;;;;;;5024353;28;20018;-67
2022/10/25 00:34:04;;;;;;;18.48;4.80;;;;;;;;;;5029966;28;20097;-67
2022/10/25 00:36:29;;;;;;;17.92;4.85;;;;;;;;;;5029806;28;20375;-67
2022/10/25 00:38:55;;;;;;;27.88;5.72;;;;;;;;;;5029504;28;20383;-66
2022/10/25 00:41:22;;;;;;;12.77;4.60;;;;;;;;;;5029180;28;20033;-68
2022/10/25 00:43:49;;;;;;;14.88;5.00;;;;;;;;;;5029639;28;20025;-66
2022/10/25 00:46:18;;;;;;;18.30;4.90;;;;;;;;;;5029280;28;20096;-67
2022/10/25 00:48:49;;;;;;;17.23;5.10;;;;;;;;;;5030599;28;20017;-68
2022/10/25 00:51:15;;;;;;;20.02;5.13;;;;;;;;;;5032367;28;20025;-68
2022/10/25 00:53:40;;;;;;;18.33;4.60;;;;;;;;;;5033732;28;20026;-67
2022/10/25 00:56:13;;;;;;;28.75;5.45;;;;;;;;;;5033440;28;20628;-67
2022/10/25 00:58:39;;;;;;;18.00;4.47;;;;;;;;;;5025489;28;20417;-66
2022/10/25 01:01:05;;;;;;;11.05;3.95;;;;;;;;;;5027693;28;20097;-66
2022/10/25 01:03:31;;;;;;;14.93;4.40;;;;;;;;;;5030609;28;20021;-67
2022/10/25 01:05:57;;;;;;;18.98;5.53;;;;;;;;;;5031585;28;20016;-69
2022/10/25 01:08:23;;;;;;;14.73;4.05;;;;;;;;;;5033675;28;20033;-67
2022/10/25 01:10:48;;;;;;;18.55;3.85;;;;;;;;;;5033261;28;20017;-67
2022/10/25 01:13:14;;;;;;;19.70;4.20;;;;;;;;;;5030767;28;20025;-67
2022/10/25 01:15:58;;;;;;;16.30;4.40;;;;;;;;;;5025201;28;20029;-66
2022/10/25 01:18:42;;;;;;;16.60;4.47;;;;;;;;;;5032825;28;20029;-67
2022/10/25 01:21:22;;;;;;;17.95;5.68;;;;;;;;;;5033214;28;20484;-67
2022/10/25 01:24:01;;;;;;;16.88;5.80;;;;;;;;;;5031601;28;20460;-67
2022/10/25 01:26:35;;;;;;;19.58;5.88;;;;;;;;;;5021853;28;20080;-67
2022/10/25 01:29:11;;;;;;;19.52;6.72;;;;;;;;;;5026168;28;20017;-67
2022/10/25 01:31:57;;;;;;;35.97;6.32;;;;;;;;;;5032796;28;20101;-66
2022/10/25 01:34:22;;;;;;;12.60;5.38;;;;;;;;;;5021014;28;20065;-65
2022/10/25 01:36:59;;;;;;;13.25;5.25;;;;;;;;;;5032261;28;20412;-67
2022/10/25 01:39:27;;;;;;;22.45;6.68;;;;;;;;;;5033469;28;20021;-67
2022/10/25 01:41:53;;;;;;;;;;;;;;;;;;5032904;28;20104;-65
2022/10/25 01:44:18;;;;;;;19.95;5.60;;;;;;;;;;5021881;28;20356;-68
2022/10/25 01:46:43;;;;;;;20.20;5.13;;;;;;;;;;5029766;28;20282;-66
2022/10/25 01:49:11;;;;;;;11.07;4.63;;;;;;;;;;5032886;28;20810;-68
2022/10/25 01:51:37;;;;;;;22.55;4.90;;;;;;;;;;5029734;28;20025;-67
2022/10/25 01:54:02;;;;;;;12.15;5.28;;;;;;;;;;5024654;28;20041;-67
2022/10/25 01:56:33;;;;;;;9.38;4.35;;;;;;;;;;5032331;28;20020;-67
2022/10/25 01:59:04;;;;;;;23.35;4.78;;;;;;;;;;5033075;28;20024;-67
2022/10/25 02:01:42;;;;;;;13.38;5.05;;;;;;;;;;5032276;28;20048;-67
2022/10/25 02:04:13;;;;;;;22.65;5.28;;;;;;;;;;5030654;28;20188;-66
2022/10/25 02:06:54;;;;;;;18.90;5.35;;;;;;;;;;5028255;28;20124;-67
2022/10/25 02:09:23;;;;;;;16.67;4.90;;;;;;;;;;5033020;28;20049;-66
2022/10/25 02:11:49;;;;;;;15.88;4.80;;;;;;;;;;5032274;28;20514;-66
2022/10/25 02:14:14;;;;;;;28.92;6.10;;;;;;;;;;5020113;28;20025;-68
2022/10/25 02:16:42;;;;;;;18.13;4.70;;;;;;;;;;5032192;28;20025;-67
2022/10/25 02:19:09;;;;;;;15.05;5.30;;;;;;;;;;5032748;28;20242;-66
2022/10/25 02:21:35;;;;;;;12.93;4.38;;;;;;;;;;5032657;28;20035;-67
2022/10/25 02:24:04;;;;;;;10.20;4.60;;;;;;;;;;5032051;28;20022;-68
2022/10/25 02:26:29;;;;;;;16.75;5.05;;;;;;;;;;5031104;28;20623;-65
2022/10/25 02:28:55;;;;;;;18.83;4.70;;;;;;;;;;5021971;28;20056;-67
2022/10/25 02:31:22;;;;;;;21.67;6.20;;;;;;;;;;5031709;28;20112;-66
2022/10/25 02:33:47;;;;;;;24.58;6.10;;;;;;;;;;5018122;28;20052;-67
2022/10/25 02:36:18;;;;;;;21.42;6.18;;;;;;;;;;5031447;28;20472;-66
2022/10/25 02:38:43;;;;;;;20.42;6.78;;;;;;;;;;5031032;28;20029;-68
2022/10/25 02:41:09;;;;;;;26.45;6.50;;;;;;;;;;5030871;28;20087;-65
2022/10/25 02:43:34;;;;;;;19.90;6.40;;;;;;;;;;5030732;28;20029;-67
2022/10/25 02:46:03;;;;;;;19.00;6.63;;;;;;;;;;5031618;28;20018;-65
2022/10/25 02:48:29;;;;;;;19.42;7.90;;;;;;;;;;5017651;28;20048;-66
2022/10/25 02:50:54;;;;;;;28.80;7.00;;;;;;;;;;5031223;28;20410;-67
2022/10/25 02:53:19;;;;;;;25.67;7.63;;;;;;;;;;5030904;28;20033;-67
2022/10/25 02:55:44;;;;;;;15.30;6.23;;;;;;;;;;5030940;28;20036;-68
2022/10/25 02:58:09;;;;;;;22.27;6.50;;;;;;;;;;5028685;28;20811;-68
2022/10/25 03:00:35;;;;;;;22.40;6.45;;;;;;;;;;5029743;28;20480;-67
2022/10/25 03:03:00;;;;;;;18.63;6.20;;;;;;;;;;5026122;28;20017;-65
2022/10/25 03:05:25;;;;;;;25.77;7.03;;;;;;;;;;5030667;28;20298;-68
2022/10/25 03:07:50;;;;;;;19.02;5.88;;;;;;;;;;5030683;28;20025;-66
2022/10/25 03:10:15;;;;;;;28.03;6.30;;;;;;;;;;5030404;28;20017;-67
2022/10/25 03:12:40;;;;;;;23.03;6.13;;;;;;;;;;5027472;28;20404;-67
2022/10/25 03:15:06;;;;;;;20.10;5.55;;;;;;;;;;5030245;28;20299;-68
2022/10/25 03:17:31;;;;;;;24.98;6.07;;;;;;;;;;5026784;28;20018;-68
2022/10/25 03:19:56;;;;;;;22.38;5.75;;;;;;;;;;5021008;28;20467;-66
2022/10/25 03:22:21;;;;;;;21.20;6.35;;;;;;;;;;5030777;28;20363;-68
2022/10/25 03:24:47;;;;;;;30.17;7.88;;;;;;;;;;5020138;28;20037;-67
2022/10/25 03:27:12;;;;;;;17.95;5.93;;;;;;;;;;5026834;28;20100;-67
2022/10/25 03:29:37;;;;;;;20.83;5.70;;;;;;;;;;5024096;28;20029;-66
2022/10/25 03:32:04;;;;;;;27.50;7.20;;;;;;;;;;5017302;28;20041;-67
2022/10/25 03:34:29;;;;;;;32.20;9.25;;;;;;;;;;5030180;28;20068;-65
2022/10/25 03:36:56;;;;;;;26.65;6.80;;;;;;;;;;5028450;28;20072;-66
2022/10/25 03:39:21;;;;;;;21.52;7.43;;;;;;;;;;5028934;28;20163;-67
2022/10/25 03:41:46;;;;;;;21.23;5.47;;;;;;;;;;5029762;28;20100;-68
2022/10/25 03:44:12;;;;;;;24.15;6.40;;;;;;;;;;5029942;28;20259;-68
2022/10/25 03:46:37;;;;;;;13.77;5.05;;;;;;;;;;5029669;28;20022;-66
2022/10/25 03:49:02;;;;;;;24.17;5.83;;;;;;;;;;5030333;28;20029;-67
2022/10/25 03:51:27;;;;;;;20.30;6.97;;;;;;;;;;5024920;28;20736;-67
2022/10/25 03:53:52;;;;;;;17.98;5.20;;;;;;;;;;5027411;28;20246;-67
2022/10/25 03:56:18;;;;;;;18.75;6.20;;;;;;;;;;5030119;28;20021;-66
2022/10/25 03:58:43;;;;;;;24.70;5.33;;;;;;;;;;5030584;28;20065;-66
2022/10/25 04:01:08;;;;;;;13.73;5.15;;;;;;;;;;5028852;28;20262;-67
2022/10/25 04:03:34;;;;;;;16.67;5.25;;;;;;;;;;5030015;28;20017;-66
2022/10/25 04:05:59;;;;;;;24.90;6.20;;;;;;;;;;5029803;28;20216;-67
2022/10/25 04:08:24;;;;;;;15.70;5.67;;;;;;;;;;5029827;28;20135;-65
2022/10/25 04:10:49;;;;;;;21.52;5.88;;;;;;;;;;5028279;28;20282;-67
2022/10/25 04:13:15;;;;;;;17.60;5.07;;;;;;;;;;5028166;28;20075;-66
2022/10/25 04:15:40;;;;;;;20.10;6.47;;;;;;;;;;5030032;28;20026;-66
2022/10/25 04:18:05;;;;;;;20.45;5.10;;;;;;;;;;5030409;28;20083;-67
2022/10/25 04:20:30;;;;;;;19.88;5.65;;;;;;;;;;5017182;28;20038;-67
2022/10/25 04:22:55;;;;;;;24.83;6.65;;;;;;;;;;5029080;28;20026;-65
2022/10/25 04:25:21;;;;;;;23.63;7.78;;;;;;;;;;5034282;28;20028;-66
2022/10/25 04:27:46;;;;;;;16.80;5.38;;;;;;;;;;5033629;28;20029;-66
2022/10/25 04:30:12;;;;;;;17.48;6.97;;;;;;;;;;5032970;28;20491;-67
2022/10/25 04:32:37;;;;;;;20.25;5.55;;;;;;;;;;5027738;28;20025;-66
2022/10/25 04:35:02;;;;;;;19.25;6.32;;;;;;;;;;5020207;28;20080;-67
2022/10/25 04:37:27;;;;;;;17.20;6.13;;;;;;;;;;5034039;28;20025;-67
2022/10/25 04:39:53;;;;;;;19.97;5.43;;;;;;;;;;5033767;28;20020;-66
2022/10/25 04:42:18;;;;;;;17.90;4.75;;;;;;;;;;5034141;28;20266;-67
2022/10/25 04:44:43;;;;;;;15.18;4.22;;;;;;;;;;5033476;28;20638;-69
2022/10/25 04:47:09;;;;;;;19.05;4.68;;;;;;;;;;5033208;28;20079;-68
2022/10/25 04:49:34;;;;;;;19.45;4.68;;;;;;;;;;5032151;28;20018;-66
2022/10/25 04:51:59;;;;;;;28.65;5.40;;;;;;;;;;5033103;28;20028;-68
2022/10/25 04:54:25;;;;;;;13.90;4.60;;;;;;;;;;5034060;28;20106;-65
2022/10/25 04:56:50;;;;;;;21.17;5.22;;;;;;;;;;5033466;28;20259;-70
2022/10/25 04:59:15;;;;;;;23.23;6.70;;;;;;;;;;5033151;28;20078;-66
2022/10/25 05:01:40;;;;;;;17.50;6.80;;;;;;;;;;5018928;28;20026;-68
2022/10/25 05:04:05;;;;;;;17.67;5.45;;;;;;;;;;5032877;28;20033;-68
2022/10/25 05:06:30;;;;;;;26.90;5.53;;;;;;;;;;5028051;28;20034;-68
2022/10/25 05:08:56;;;;;;;15.77;5.47;;;;;;;;;;5033791;28;20026;-67
2022/10/25 05:11:22;;;;;;;28.67;6.43;;;;;;;;;;5030309;28;20053;-66
2022/10/25 05:13:47;;;;;;;22.83;6.43;;;;;;;;;;5030488;28;20022;-68
2022/10/25 05:16:16;;;;;;;26.10;7.95;;;;;;;;;;5025841;28;20028;-68
2022/10/25 05:18:44;;;;;;;18.85;7.18;;;;;;;;;;5033047;28;20175;-66
2022/10/25 05:21:10;;;;;;;22.23;7.45;;;;;;;;;;5032932;28;20026;-67
2022/10/25 05:23:35;;;;;;;26.40;7.57;;;;;;;;;;5033023;28;20025;-69
2022/10/25 05:26:00;;;;;;;19.50;7.03;;;;;;;;;;5019295;28;20037;-67
2022/10/25 05:28:26;;;;;;;21.67;8.30;;;;;;;;;;5029609;28;20029;-67
2022/10/25 05:30:51;;;;;;;21.00;6.82;;;;;;;;;;5032709;28;20095;-67
2022/10/25 05:33:16;;;;;;;24.48;7.03;;;;;;;;;;5033339;28;20109;-67
2022/10/25 05:35:41;;;;;;;21.60;7.53;;;;;;;;;;5031091;28;20062;-67
2022/10/25 05:38:06;;;;;;;23.65;6.07;;;;;;;;;;5033191;28;20017;-68
2022/10/25 05:40:31;;;;;;;21.20;5.50;;;;;;;;;;5033050;28;20091;-67
2022/10/25 05:42:57;;;;;;;17.20;5.40;;;;;;;;;;5032871;28;20025;-67
2022/10/25 05:45:22;;;;;;;25.92;6.22;;;;;;;;;;5031893;28;20616;-67
2022/10/25 05:47:47;;;;;;;18.10;5.00;;;;;;;;;;5031846;28;20025;-68
2022/10/25 05:50:12;;;;;;;19.38;6.45;;;;;;;;;;5025708;28;20025;-66
2022/10/25 05:52:42;;;;;;;24.92;5.60;;;;;;;;;;5028829;28;20025;-67
2022/10/25 05:55:07;;;;;;;23.10;6.40;;;;;;;;;;5032346;28;20025;-67
2022/10/25 05:57:33;;;;;;;26.85;5.60;;;;;;;;;;5031480;28;20033;-67
2022/10/25 05:59:58;;;;;;;21.90;5.78;;;;;;;;;;5030946;28;20075;-68
2022/10/25 06:02:23;;;;;;;20.48;5.88;;;;;;;;;;5031766;28;20490;-67
2022/10/25 06:04:49;;;;;;;24.55;4.82;;;;;;;;;;5031009;28;20447;-68
2022/10/25 06:07:14;;;;;;;21.30;4.45;;;;;;;;;;5031517;28;20051;-68
2022/10/25 06:09:39;;;;;;;14.80;4.93;;;;;;;;;;5032290;28;20032;-68
2022/10/25 06:12:05;;;;;;;18.50;5.90;;;;;;;;;;5030621;28;20030;-68
2022/10/25 06:14:30;;;;;;;29.38;7.13;;;;;;;;;;5025442;28;20045;-65
2022/10/25 06:16:55;;;;;;;17.08;5.25;;;;;;;;;;5023351;28;20105;-67
2022/10/25 06:19:21;;;;;;;13.50;5.63;;;;;;;;;;5027447;28;20108;-67
2022/10/25 06:21:46;;;;;;;15.90;4.97;;;;;;;;;;5024768;28;20407;-69
2022/10/25 06:24:11;;;;;;;19.67;5.70;;;;;;;;;;5026478;28;20014;-65
2022/10/25 06:26:36;;;;;;;18.92;5.13;;;;;;;;;;5023580;28;20013;-68
2022/10/25 06:29:03;;;;;;;14.00;4.50;;;;;;;;;;5024709;28;20139;-66
2022/10/25 06:31:29;;;;;;;17.50;4.80;;;;;;;;;;5031692;28;20471;-68
2022/10/25 06:33:54;;;;;;;11.60;4.90;;;;;;;;;;5033082;28;20040;-68
2022/10/25 06:36:23;;;;;;;15.60;4.70;;;;;;;;;;5031632;28;20021;-67
2022/10/25 06:38:48;;;;;;;;;;;;;;;;;;5030184;28;20024;-68
2022/10/25 06:41:21;;;;;;;18.73;5.90;;;;;;;;;;5031759;28;19921;-68
2022/10/25 06:43:46;;;;;;;14.57;3.40;;;;;;;;;;5017611;28;20650;-68
2022/10/25 06:46:24;;;;;;;10.18;3.35;;;;;;;;;;5030801;28;20033;-67
2022/10/25 06:48:49;;;;;;;13.38;3.72;;;;;;;;;;5018850;28;20028;-68
2022/10/25 06:51:15;;;;;;;13.95;3.70;;;;;;;;;;5031249;28;20104;-69
2022/10/25 06:53:40;;;;;;;10.68;4.13;;;;;;;;;;5031138;28;20480;-68
2022/10/25 06:56:07;;;;;;;20.85;4.10;;;;;;;;;;5031341;28;20581;-68
2022/10/25 06:58:33;;;;;;;17.77;4.00;;;;;;;;;;5030481;28;20104;-68
2022/10/25 07:01:01;;;;;;;17.85;3.85;;;;;;;;;;5031107;28;20085;-65
2022/10/25 07:03:29;;;;;;;19.83;4.00;;;;;;;;;;5019303;28;20014;-69
2022/10/25 07:06:04;;;;;;;9.57;3.70;;;;;;;;;;5030839;28;20109;-71
2022/10/25 07:08:30;;;;;;;13.02;3.17;;;;;;;;;;5027554;28;20017;-67
2022/10/25 07:10:55;;;;;;;16.38;3.83;;;;;;;;;;5031014;28;20079;-66
2022/10/25 07:13:21;;;;;;;30.73;5.10;;;;;;;;;;5031001;28;20025;-67
2022/10/25 07:15:46;;;;;;;23.48;4.10;;;;;;;;;;5028301;28;20056;-68
2022/10/25 07:18:11;;;;;;;12.90;3.03;;;;;;;;;;5018983;28;20036;-68
2022/10/25 07:20:36;;;;;;;16.80;3.57;;;;;;;;;;5030726;28;20274;-67
2022/10/25 07:23:02;;;;;;;14.30;3.55;;;;;;;;;;5030768;28;20305;-66
2022/10/25 07:25:27;;;;;;;18.67;3.03;;;;;;;;;;5030344;28;20075;-68
2022/10/25 07:27:52;;;;;;;20.67;3.10;;;;;;;;;;5029919;28;20021;-67
2022/10/25 07:30:17;;;;;;;11.55;2.65;;;;;;;;;;5029677;28;20033;-67
2022/10/25 07:32:42;;;;;;;13.07;2.50;;;;;;;;;;5030261;28;20022;-68
2022/10/25 07:35:08;;;;;;;9.48;3.28;;;;;;;;;;5030876;28;20079;-67
2022/10/25 07:37:33;;;;;;;13.88;2.78;;;;;;;;;;5029681;28;20479;-66
2022/10/25 07:39:58;;;;;;;14.75;3.30;;;;;;;;;;5030319;28;20017;-68
2022/10/25 07:42:23;;;;;;;16.17;2.75;;;;;;;;;;5030540;28;20021;-66
2022/10/25 07:44:49;;;;;;;14.10;3.30;;;;;;;;;;5023114;28;20018;-67
2022/10/25 07:47:14;;;;;;;13.95;2.95;;;;;;;;;;5029639;28;20387;-68
2022/10/25 07:49:39;;;;;;;18.73;3.25;;;;;;;;;;5030137;28;20037;-68
2022/10/25 07:52:04;;;;;;;17.80;3.60;;;;;;;;;;5028175;28;20024;-69
2022/10/25 07:54:29;;;;;;;20.65;3.05;;;;;;;;;;5022634;28;20028;-68
2022/10/25 07:56:55;;;;;;;9.52;3.50;;;;;;;;;;5030203;28;20024;-69
2022/10/25 07:59:20;;;;;;;18.42;3.38;;;;;;;;;;5031703;28;20083;-66
2022/10/25 08:01:46;;;;;;;25.67;4.00;;;;;;;;;;5032597;28;20087;-68
2022/10/25 08:04:11;;;;;;;10.15;3.03;;;;;;;;;;5030520;28;20173;-67
2022/10/25 08:06:36;;;;;;;24.80;4.00;;;;;;;;;;5030229;28;20033;-67
2022/10/25 08:09:01;;;;;;;16.77;3.35;;;;;;;;;;5030488;28;20261;-65
2022/10/25 08:11:26;;;;;;;6.95;2.25;;;;;;;;;;5029575;28;20040;-67
2022/10/25 08:13:52;;;;;;;14.30;3.35;;;;;;;;;;5030671;28;20097;-69
2022/10/25 08:16:17;;;;;;;12.63;2.22;;;;;;;;;;5030073;28;20026;-69
2022/10/25 08:18:42;;;;;;;14.25;2.85;;;;;;;;;;5030361;28;20018;-67
2022/10/25 08:21:08;;;;;;;14.90;2.70;;;;;;;;;;5030855;28;20037;-68
2022/10/25 08:23:33;;;;;;;15.52;2.85;;;;;;;;;;5030190;28;20014;-67
2022/10/25 08:25:59;;;;;;;13.35;2.35;;;;;;;;;;5030490;28;20022;-65
2022/10/25 08:28:24;;;;;;;21.52;2.80;;;;;;;;;;5029489;28;20029;-66
2022/10/25 08:30:51;;;;;;;14.00;2.50;;;;;;;;;;5025904;28;20030;-68
2022/10/25 08:33:16;;;;;;;11.85;2.00;;;;;;;;;;5030259;28;20156;-68
2022/10/25 08:35:41;;;;;;;36.13;2.83;;;;;;;;;;5030248;28;20033;-68
2022/10/25 08:38:07;;;;;;;5.90;1.95;;;;;;;;;;5029508;28;20752;-69
2022/10/25 08:40:34;;;;;;;14.02;1.83;;;;;;;;;;5029872;28;20048;-69
2022/10/25 08:43:08;;;;;;;10.20;1.80;;;;;;;;;;5029869;28;20021;-70
2022/10/25 08:45:36;;;;;;;9.50;1.85;;;;;;;;;;5019555;28;20045;-70
2022/10/25 08:48:01;;;;;;;11.07;1.98;;;;;;;;;;5029141;28;20037;-67
2022/10/25 08:50:42;;;;;;;19.23;1.90;;;;;;;;;;5028197;28;20080;-69
2022/10/25 08:53:11;;;;;;;13.95;2.70;;;;;;;;;;5014313;28;20026;-68
2022/10/25 08:55:40;;;;;;;9.52;1.77;;;;;;;;;;5018496;28;20025;-66
2022/10/25 08:58:10;;;;;;;13.95;2.60;;;;;;;;;;5029193;28;20056;-67
2022/10/25 09:00:39;;;;;;;6.53;1.88;;;;;;;;;;5029835;28;20017;-68
2022/10/25 09:03:11;;;;;;;17.73;1.88;;;;;;;;;;5016936;28;20549;-66
2022/10/25 09:05:41;;;;;;;13.10;2.30;;;;;;;;;;5029474;28;20030;-69
2022/10/25 09:08:11;;;;;;;10.75;1.75;;;;;;;;;;5028982;28;20555;-69
2022/10/25 09:10:52;;;;;;;10.35;1.98;;;;;;;;;;5030851;28;20386;-68
2022/10/25 09:13:17;;;;;;;10.60;2.08;;;;;;;;;;5022243;28;20495;-67
2022/10/25 09:15:50;;;;;;;12.37;1.80;;;;;;;;;;5032743;28;20021;-68
2022/10/25 09:18:18;;;;;;;8.15;2.22;;;;;;;;;;5023102;28;20267;-66
2022/10/25 09:20:51;;;;;;;10.93;1.67;;;;;;;;;;5030173;28;20021;-67
2022/10/25 09:23:31;;;;;;;12.68;1.77;;;;;;;;;;5032230;28;20092;-68
2022/10/25 09:26:08;;;;;;;11.80;1.90;;;;;;;;;;5019443;28;20021;-68
2022/10/25 09:28:36;;;;;;;8.80;1.40;;;;;;;;;;5033546;28;20025;-67
2022/10/25 09:31:02;;;;;;;12.45;1.95;;;;;;;;;;5033036;28;20037;-68
2022/10/25 09:33:29;;;;;;;6.53;1.83;;;;;;;;;;5019263;28;20032;-69
2022/10/25 09:35:56;;;;;;;21.08;2.28;;;;;;;;;;5032724;28;20141;-68
2022/10/25 09:38:23;;;;;;;22.60;2.95;;;;;;;;;;5030445;28;20113;-69
2022/10/25 09:40:59;;;;;;;9.95;1.88;;;;;;;;;;5021414;28;20200;-68
2022/10/25 09:43:32;;;;;;;5.70;1.95;;;;;;;;;;5031723;28;20021;-68
2022/10/25 09:46:02;;;;;;;13.75;1.98;;;;;;;;;;5031749;28;20529;-67
2022/10/25 09:48:27;;;;;;;13.45;2.13;;;;;;;;;;5031444;28;20246;-66
2022/10/25 09:50:56;;;;;;;23.65;3.47;;;;;;;;;;5030062;28;20584;-69
2022/10/25 09:53:21;;;;;;;11.73;1.77;;;;;;;;;;5027762;28;20150;-69
2022/10/25 09:55:54;;;;;;;12.70;2.35;;;;;;;;;;5029991;28;20030;-67
2022/10/25 09:58:19;;;;;;;23.45;2.78;;;;;;;;;;5031161;28;20018;-67
2022/10/25 10:00:44;;;;;;;12.30;2.23;;;;;;;;;;5032730;28;20022;-68
2022/10/25 10:03:11;;;;;;;11.25;1.85;;;;;;;;;;5033640;28;20247;-69
2022/10/25 10:05:36;;;;;;;10.32;2.13;;;;;;;;;;5033579;28;20014;-65
2022/10/25 10:08:02;;;;;;;6.07;1.95;;;;;;;;;;5032005;28;20387;-67
2022/10/25 10:10:31;;;;;;;12.00;2.07;;;;;;;;;;5033514;28;20025;-66
2022/10/25 10:12:56;;;;;;;8.93;1.98;;;;;;;;;;5043839;28;20313;-65
2022/10/25 10:15:23;;;;;;;12.35;2.30;;;;;;;;;;5022669;28;20060;-67
2022/10/25 10:18:08;;;;;;;12.35;2.05;;;;;;;;;;5032738;28;20021;-67
2022/10/25 10:20:34;;;;;;;7.72;1.88;;;;;;;;;;5018478;28;20133;-67
2022/10/25 10:22:59;;;;;;;16.90;2.10;;;;;;;;;;5032210;28;20108;-66
2022/10/25 10:25:25;;;;;;;14.52;1.83;;;;;;;;;;5029018;28;20021;-70
2022/10/25 10:27:52;;;;;;;7.65;1.77;;;;;;;;;;5019603;28;20119;-66
2022/10/25 10:30:20;;;;;;;8.27;2.10;;;;;;;;;;5029328;28;20017;-68
2022/10/25 10:32:45;;;;;;;11.10;1.95;;;;;;;;;;5031624;28;20090;-69
2022/10/25 10:35:31;;;;;;;13.85;1.75;;;;;;;;;;5016794;28;20129;-66
2022/10/25 10:38:15;;;;;;;9.68;1.73;;;;;;;;;;5029410;28;20029;-69
2022/10/25 10:40:41;;;;;;;8.57;2.13;;;;;;;;;;5019775;28;20112;-68
2022/10/25 10:43:42;;;;;;;13.63;1.55;;;;;;;;;;5031562;28;20045;-68
2022/10/25 10:46:09;;;;;;;11.45;2.33;;;;;;;;;;4969273;28;20033;-68
2022/10/25 10:48:37;;;;;;;14.27;1.90;;;;;;;;;;5019816;28;20034;-68
2022/10/25 10:51:03;;;;;;;16.35;2.17;;;;;;;;;;5032029;28;20029;-67
2022/10/25 10:53:31;;;;;;;15.95;1.80;;;;;;;;;;5031997;28;20029;-67
2022/10/25 10:55:57;;;;;;;12.80;2.60;;;;;;;;;;5031950;28;20029;-69
2022/10/25 10:58:25;;;;;;;18.85;1.83;;;;;;;;;;5025042;28;20337;-68
2022/10/25 11:00:58;;;;;;;11.82;1.90;;;;;;;;;;5023692;28;20021;-66
2022/10/25 11:03:41;;;;;;;11.88;1.73;;;;;;;;;;5030879;28;20108;-65
2022/10/25 11:06:28;;;;;;;11.82;2.00;;;;;;;;;;5030170;28;20021;-67
2022/10/25 11:09:08;;;;;;;9.13;2.15;;;;;;;;;;5030248;28;20025;-68
2022/10/25 11:11:33;;;;;;;6.72;1.65;;;;;;;;;;5028840;28;20024;-67
2022/10/25 11:14:00;;;;;;;17.45;2.17;;;;;;;;;;5028302;28;20025;-68
2022/10/25 11:16:31;;;;;;;16.58;1.75;;;;;;;;;;5023951;28;20031;-67
2022/10/25 11:19:11;;;;;;;12.50;1.70;;;;;;;;;;5017827;28;20071;-68
2022/10/25 11:21:45;;;;;;;9.45;1.95;;;;;;;;;;5030709;28;20413;-68
2022/10/25 11:24:29;;;;;;;13.85;2.42;;;;;;;;;;5032010;28;20014;-67
2022/10/25 11:26:58;;;;;;;7.45;1.75;;;;;;;;;;5031420;28;20021;-68
2022/10/25 11:29:29;;;;;;;7.30;1.85;;;;;;;;;;5030750;28;20052;-67
2022/10/25 11:32:04;;;;;;;14.75;1.95;;;;;;;;;;5030249;28;20036;-65
2022/10/25 11:34:47;;;;;;;17.73;1.83;;;;;;;;;;5030925;28;20033;-68
2022/10/25 11:37:30;;;;;;;10.70;2.05;;;;;;;;;;5030762;28;20499;-68
2022/10/25 11:39:55;;;;;;;4.57;1.50;;;;;;;;;;5030990;28;20060;-69
2022/10/25 11:42:20;;;;;;;11.60;1.63;;;;;;;;;;5030981;28;20049;-66
2022/10/25 11:44:52;;;;;;;21.80;2.60;;;;;;;;;;5030675;28;20247;-69
2022/10/25 11:47:39;;;;;;;22.05;1.70;;;;;;;;;;5022582;28;20314;-67
2022/10/25 11:50:17;;;;;;;3.20;1.30;;;;;;;;;;5029324;28;20525;-66
2022/10/25 11:52:42;;;;;;;15.95;3.72;;;;;;;;;;5030713;28;20923;-69
2022/10/25 11:55:16;;;;;;;7.97;1.73;;;;;;;;;;5022697;28;20079;-65
2022/10/25 11:58:00;;;;;;;12.50;2.15;;;;;;;;;;5030494;28;20029;-67
2022/10/25 12:00:37;;;;;;;12.77;1.73;;;;;;;;;;5021879;28;20049;-69
2022/10/25 12:03:24;;;;;;;10.82;2.10;;;;;;;;;;5027453;28;20076;-68
2022/10/25 12:06:07;;;;;;;13.50;2.22;;;;;;;;;;5030792;28;20472;-67
2022/10/25 12:08:40;;;;;;;8.38;1.83;;;;;;;;;;5030560;28;20041;-66
2022/10/25 12:11:29;;;;;;;12.82;2.08;;;;;;;;;;5029085;28;20026;-66
2022/10/25 12:13:56;;;;;;;8.90;1.85;;;;;;;;;;5021712;28;20116;-67
2022/10/25 12:16:23;;;;;;;8.32;1.60;;;;;;;;;;5016923;28;20478;-67
2022/10/25 12:18:49;;;;;;;12.07;2.42;;;;;;;;;;5017565;28;20061;-67
2022/10/25 12:21:18;;;;;;;17.10;2.35;;;;;;;;;;5030281;28;20017;-67
2022/10/25 12:23:46;;;;;;;12.10;1.80;;;;;;;;;;5030924;28;20411;-68
2022/10/25 12:26:16;;;;;;;15.75;2.00;;;;;;;;;;5030769;28;20018;-68
2022/10/25 12:28:41;;;;;;;6.07;1.98;;;;;;;;;;5016290;28;20022;-65
2022/10/25 12:31:25;;;;;;;8.23;1.48;;;;;;;;;;5030544;28;20079;-68
2022/10/25 12:34:03;;;;;;;7.82;1.73;;;;;;;;;;5028113;28;20443;-68
2022/10/25 12:36:36;;;;;;;4.40;1.70;;;;;;;;;;5027737;28;20025;-67
2022/10/25 12:39:03;;;;;;;11.75;1.55;;;;;;;;;;5031209;28;20029;-68
2022/10/25 12:41:32;;;;;;;12.07;1.90;;;;;;;;;;5030368;28;20025;-68
2022/10/25 12:44:15;;;;;;;17.50;1.98;;;;;;;;;;5030525;28;20014;-67
2022/10/25 12:46:41;;;;;;;11.95;2.35;;;;;;;;;;5032768;28;20104;-66
2022/10/25 12:49:12;;;;;;;11.00;1.93;;;;;;;;;;5033515;28;20045;-67
2022/10/25 12:51:40;;;;;;;10.07;2.05;;;;;;;;;;5032423;28;20261;-67
2022/10/25 12:54:09;;;;;;;15.63;2.35;;;;;;;;;;5032730;28;20025;-68
2022/10/25 12:56:43;;;;;;;16.92;2.72;;;;;;;;;;5032913;28;20026;-68
2022/10/25 12:59:19;;;;;;;16.40;2.25;;;;;;;;;;5033890;28;20018;-69
2022/10/25 13:02:03;;;;;;;11.52;2.20;;;;;;;;;;5019715;28;20083;-69
2022/10/25 13:04:28;;;;;;;12.55;1.70;;;;;;;;;;5028131;28;20049;-68
2022/10/25 13:06:54;;;;;;;20.73;2.53;;;;;;;;;;5033760;28;20056;-69
2022/10/25 13:09:20;;;;;;;15.35;2.10;;;;;;;;;;5033928;28;20267;-68
2022/10/25 13:11:47;;;;;;;6.85;2.03;;;;;;;;;;5031438;28;20021;-67
2022/10/25 13:14:21;;;;;;;10.10;1.90;;;;;;;;;;5028557;28;20026;-68
2022/10/25 13:16:47;;;;;;;25.63;2.30;;;;;;;;;;5029114;28;20019;-66
2022/10/25 13:19:12;;;;;;;8.77;1.88;;;;;;;;;;5033290;28;20460;-67
2022/10/25 13:21:52;;;;;;;7.50;2.20;;;;;;;;;;5023150;28;20022;-65
2022/10/25 13:24:36;;;;;;;15.15;2.10;;;;;;;;;;5031867;28;20253;-67
2022/10/25 13:27:13;;;;;;;5.97;1.30;;;;;;;;;;5033494;28;20022;-66
2022/10/25 13:29:41;;;;;;;5.18;1.60;;;;;;;;;;5029364;28;20023;-67
2022/10/25 13:32:12;;;;;;;19.03;3.07;;;;;;;;;;5034919;28;20022;-69
2022/10/25 13:34:38;;;;;;;12.45;2.38;;;;;;;;;;5032972;28;20253;-67
2022/10/25 13:37:04;;;;;;;10.30;2.47;;;;;;;;;;5033477;28;20092;-67
2022/10/25 13:39:43;;;;;;;10.68;2.10;;;;;;;;;;5034655;28;20024;-69
2022/10/25 13:42:14;;;;;;;13.20;1.80;;;;;;;;;;5033567;28;20029;-68
2022/10/25 13:44:59;;;;;;;9.02;2.63;;;;;;;;;;5032848;28;20052;-68
2022/10/25 13:47:34;;;;;;;13.68;2.08;;;;;;;;;;4986641;28;20072;-68
2022/10/25 13:49:59;;;;;;;6.53;1.67;;;;;;;;;;5032685;28;20028;-68
2022/10/25 13:52:31;;;;;;;13.70;2.08;;;;;;;;;;5024521;28;20029;-68
2022/10/25 13:54:56;;;;;;;7.82;1.65;;;;;;;;;;5032398;28;20017;-66
2022/10/25 13:57:40;;;;;;;10.30;2.20;;;;;;;;;;5030216;28;20018;-68
2022/10/25 14:00:28;;;;;;;12.65;2.03;;;;;;;;;;5032044;28;20063;-67
2022/10/25 14:03:04;;;;;;;13.00;2.90;;;;;;;;;;5026756;28;20030;-66
2022/10/25 14:05:48;;;;;;;19.70;3.92;;;;;;;;;;5026759;28;20037;-69
2022/10/25 14:08:25;;;;;;;12.40;2.20;;;;;;;;;;5025568;28;20107;-67
2022/10/25 14:10:51;;;;;;;12.73;1.95;;;;;;;;;;5033764;28;20144;-67
2022/10/25 14:13:20;;;;;;;15.88;2.42;;;;;;;;;;5032045;28;20056;-66
2022/10/25 14:15:45;;;;;;;;;;;;;;;;;;5032535;28;20053;-67
2022/10/25 14:18:16;;;;;;;9.83;2.20;;;;;;;;;;5032061;28;19963;-67
2022/10/25 14:20:44;;;;;;;14.40;2.10;;;;;;;;;;5032556;28;20258;-70
2022/10/25 14:23:13;;;;;;;11.70;2.05;;;;;;;;;;5032693;28;20024;-68
2022/10/25 14:25:40;;;;;;;9.13;1.77;;;;;;;;;;5027538;28;20080;-67
2022/10/25 14:28:08;;;;;;;8.70;1.27;;;;;;;;;;5018120;28;20069;-66
2022/10/25 14:30:37;;;;;;;11.50;1.80;;;;;;;;;;5029962;28;20064;-67
2022/10/25 14:33:04;;;;;;;11.82;2.08;;;;;;;;;;5030240;28;20025;-67
2022/10/25 14:35:33;;;;;;;13.38;2.45;;;;;;;;;;5027055;28;20022;-69
2022/10/25 14:38:00;;;;;;;8.63;2.08;;;;;;;;;;5022882;28;20064;-68
2022/10/25 14:40:27;;;;;;;19.60;1.92;;;;;;;;;;5031930;28;20024;-66